createdAt,value
2023-03-29T00:00:12.417Z,85.20
2023-03-29T00:01:12.403Z,85.20
2023-03-29T00:02:12.433Z,85.72
2023-03-29T00:03:12.489Z,85.82
2023-03-29T00:04:12.544Z,86.35
2023-03-29T00:05:12.400Z,86.66
2023-03-29T00:06:12.336Z,87.07
2023-03-29T00:07:12.361Z,86.55
2023-03-29T00:08:12.310Z,86.45
2023-03-29T00:09:12.297Z,86.45
2023-03-29T00:10:12.291Z,86.59
2023-03-29T00:11:12.272Z,86.45
2023-03-29T00:12:12.279Z,87.01
2023-03-29T00:13:12.248Z,86.91
2023-03-29T00:14:12.228Z,86.38
2023-03-29T00:15:12.222Z,86.38
2023-03-29T00:16:12.214Z,86.69
2023-03-29T00:17:12.214Z,86.35
2023-03-29T00:18:12.192Z,86.59
2023-03-29T00:19:12.168Z,86.66
2023-03-29T00:20:12.154Z,86.35
2023-03-29T00:21:12.186Z,86.91
2023-03-29T00:22:12.136Z,86.87
2023-03-29T00:23:12.115Z,87.07
2023-03-29T00:24:12.102Z,86.97
2023-03-29T00:25:12.093Z,86.76
2023-03-29T00:26:12.077Z,86.35
2023-03-29T00:27:12.077Z,86.24
2023-03-29T00:28:12.057Z,86.13
2023-03-29T00:29:12.038Z,86.45
2023-03-29T00:30:12.027Z,86.45
2023-03-29T00:31:12.084Z,86.45
2023-03-29T00:32:12.004Z,86.35
2023-03-29T00:33:11.990Z,87.18
2023-03-29T00:34:11.975Z,86.97
2023-03-29T00:35:11.961Z,86.87
2023-03-29T00:36:12.012Z,86.87
2023-03-29T00:37:11.938Z,86.87
2023-03-29T00:38:11.925Z,87.18
2023-03-29T00:39:11.907Z,86.97
2023-03-29T00:40:11.899Z,86.41
2023-03-29T00:41:11.902Z,86.30
2023-03-29T00:42:11.875Z,86.30
2023-03-29T00:43:12.029Z,86.41
2023-03-29T00:44:11.851Z,86.30
2023-03-29T00:45:11.832Z,86.41
2023-03-29T00:46:11.860Z,86.41
2023-03-29T00:47:11.806Z,86.41
2023-03-29T00:48:11.886Z,85.89
2023-03-29T00:49:11.787Z,86.27
2023-03-29T00:50:11.777Z,85.64
2023-03-29T00:51:11.754Z,85.96
2023-03-29T00:52:11.751Z,84.50
2023-03-29T00:53:11.731Z,85.53
2023-03-29T00:54:11.717Z,84.91
2023-03-29T00:55:11.707Z,85.22
2023-03-29T00:56:11.690Z,85.53
2023-03-29T00:57:11.690Z,85.22
2023-03-29T00:58:11.701Z,85.53
2023-03-29T00:59:11.653Z,85.33
2023-03-29T01:00:11.639Z,85.33
2023-03-29T01:01:11.629Z,85.74
2023-03-29T01:02:11.657Z,85.64
2023-03-29T01:03:11.668Z,85.64
2023-03-29T01:04:11.586Z,85.33
2023-03-29T01:05:11.586Z,85.64
2023-03-29T01:06:11.562Z,85.96
2023-03-29T01:07:11.640Z,86.47
2023-03-29T01:08:11.548Z,86.06
2023-03-29T01:09:11.532Z,86.16
2023-03-29T01:10:11.513Z,86.37
2023-03-29T01:11:11.497Z,86.27
2023-03-29T01:12:11.489Z,86.47
2023-03-29T01:13:11.485Z,86.37
2023-03-29T01:14:11.464Z,86.37
2023-03-29T01:15:11.450Z,86.16
2023-03-29T01:16:11.463Z,86.37
2023-03-29T01:17:11.422Z,86.47
2023-03-29T01:18:11.464Z,86.27
2023-03-29T01:19:11.397Z,86.37
2023-03-29T01:20:11.381Z,86.37
2023-03-29T01:21:11.372Z,86.47
2023-03-29T01:22:11.573Z,86.47
2023-03-29T01:23:11.435Z,86.58
2023-03-29T01:24:11.335Z,86.37
2023-03-29T01:25:11.353Z,86.27
2023-03-29T01:26:11.317Z,86.27
2023-03-29T01:27:11.376Z,86.16
2023-03-29T01:28:11.282Z,85.96
2023-03-29T01:29:11.271Z,86.47
2023-03-29T01:30:11.257Z,86.37
2023-03-29T01:31:11.255Z,86.68
2023-03-29T01:32:11.339Z,86.58
2023-03-29T01:33:11.221Z,86.37
2023-03-29T01:34:11.208Z,86.47
2023-03-29T01:35:11.194Z,86.47
2023-03-29T01:36:11.228Z,86.58
2023-03-29T01:37:11.183Z,86.47
2023-03-29T01:38:11.153Z,86.37
2023-03-29T01:39:11.157Z,86.43
2023-03-29T01:40:11.144Z,86.54
2023-03-29T01:41:11.137Z,86.12
2023-03-29T01:42:11.103Z,86.43
2023-03-29T01:43:11.094Z,86.22
2023-03-29T01:44:11.132Z,86.12
2023-03-29T01:45:11.078Z,85.91
2023-03-29T01:46:11.079Z,86.16
2023-03-29T01:47:11.042Z,85.74
2023-03-29T01:48:11.061Z,85.96
2023-03-29T01:49:11.020Z,85.74
2023-03-29T01:50:11.007Z,85.81
2023-03-29T01:51:10.998Z,85.33
2023-03-29T01:52:10.974Z,85.96
2023-03-29T01:53:10.970Z,85.96
2023-03-29T01:54:10.955Z,86.02
2023-03-29T01:55:10.951Z,85.74
2023-03-29T01:56:10.932Z,85.71
2023-03-29T01:57:10.966Z,85.74
2023-03-29T01:58:10.901Z,84.87
2023-03-29T01:59:10.890Z,85.60
2023-03-29T02:00:10.883Z,84.87
2023-03-29T02:01:10.897Z,84.87
2023-03-29T02:02:10.851Z,85.29
2023-03-29T02:03:11.071Z,85.08
2023-03-29T02:04:10.824Z,85.29
2023-03-29T02:05:10.810Z,85.19
2023-03-29T02:06:10.798Z,84.98
2023-03-29T02:07:10.800Z,84.77
2023-03-29T02:08:10.776Z,84.56
2023-03-29T02:09:10.763Z,84.56
2023-03-29T02:10:10.747Z,84.66
2023-03-29T02:11:10.731Z,84.56
2023-03-29T02:12:10.733Z,84.04
2023-03-29T02:13:10.723Z,84.35
2023-03-29T02:14:10.705Z,83.94
2023-03-29T02:15:10.690Z,84.14
2023-03-29T02:16:10.694Z,84.56
2023-03-29T02:17:10.662Z,84.04
2023-03-29T02:18:10.681Z,83.94
2023-03-29T02:19:10.637Z,83.73
2023-03-29T02:20:10.656Z,84.04
2023-03-29T02:21:10.620Z,83.52
2023-03-29T02:22:10.641Z,83.42
2023-03-29T02:23:10.582Z,83.20
2023-03-29T02:24:10.570Z,82.86
2023-03-29T02:25:10.557Z,82.86
2023-03-29T02:26:10.544Z,82.34
2023-03-29T02:27:10.532Z,82.34
2023-03-29T02:28:10.540Z,81.92
2023-03-29T02:29:10.521Z,81.71
2023-03-29T02:30:10.520Z,81.81
2023-03-29T02:31:10.494Z,81.92
2023-03-29T02:32:10.464Z,81.71
2023-03-29T02:33:10.521Z,81.60
2023-03-29T02:34:10.443Z,81.92
2023-03-29T02:35:10.426Z,81.60
2023-03-29T02:36:10.461Z,81.26
2023-03-29T02:37:10.407Z,80.63
2023-03-29T02:38:10.430Z,81.15
2023-03-29T02:39:10.417Z,80.84
2023-03-29T02:40:10.374Z,79.91
2023-03-29T02:41:10.351Z,80.32
2023-03-29T02:42:10.338Z,80.32
2023-03-29T02:43:10.358Z,80.22
2023-03-29T02:44:10.320Z,80.11
2023-03-29T02:45:10.307Z,80.43
2023-03-29T02:46:10.322Z,80.43
2023-03-29T02:47:10.275Z,80.43
2023-03-29T02:48:10.375Z,80.63
2023-03-29T02:49:10.266Z,80.63
2023-03-29T02:50:10.247Z,80.32
2023-03-29T02:51:10.302Z,80.32
2023-03-29T02:52:10.221Z,80.01
2023-03-29T02:53:10.210Z,79.91
2023-03-29T02:54:10.191Z,79.69
2023-03-29T02:55:10.183Z,79.69
2023-03-29T02:56:10.165Z,79.80
2023-03-29T02:57:10.180Z,79.59
2023-03-29T02:58:10.142Z,79.91
2023-03-29T02:59:10.127Z,80.01
2023-03-29T03:00:10.125Z,80.01
2023-03-29T03:01:10.106Z,80.01
2023-03-29T03:02:10.112Z,80.11
2023-03-29T03:03:10.191Z,80.01
2023-03-29T03:04:10.218Z,80.05
2023-03-29T03:05:10.056Z,80.15
2023-03-29T03:06:10.043Z,79.91
2023-03-29T03:07:10.029Z,80.05
2023-03-29T03:08:10.031Z,78.69
2023-03-29T03:09:10.002Z,78.55
2023-03-29T03:10:09.995Z,78.59
2023-03-29T03:11:09.979Z,79.42
2023-03-29T03:12:09.968Z,79.32
2023-03-29T03:13:10.032Z,79.63
2023-03-29T03:14:09.961Z,79.32
2023-03-29T03:15:09.929Z,79.32
2023-03-29T03:16:09.996Z,79.21
2023-03-29T03:17:09.906Z,79.83
2023-03-29T03:18:09.918Z,80.15
2023-03-29T03:19:09.925Z,80.15
2023-03-29T03:20:09.870Z,80.05
2023-03-29T03:21:09.879Z,80.08
2023-03-29T03:22:09.841Z,80.08
2023-03-29T03:23:09.830Z,80.08
2023-03-29T03:24:09.817Z,80.19
2023-03-29T03:25:09.801Z,79.87
2023-03-29T03:26:09.781Z,79.91
2023-03-29T03:27:09.766Z,80.60
2023-03-29T03:28:09.751Z,80.81
2023-03-29T03:29:09.742Z,80.29
2023-03-29T03:30:09.742Z,80.40
2023-03-29T03:31:09.752Z,80.19
2023-03-29T03:32:09.731Z,80.19
2023-03-29T03:33:09.694Z,80.19
2023-03-29T03:34:09.680Z,80.08
2023-03-29T03:35:09.675Z,80.12
2023-03-29T03:36:09.673Z,80.60
2023-03-29T03:37:09.640Z,80.74
2023-03-29T03:38:09.630Z,81.05
2023-03-29T03:39:09.615Z,80.95
2023-03-29T03:40:09.606Z,80.33
2023-03-29T03:41:09.592Z,81.26
2023-03-29T03:42:09.590Z,80.85
2023-03-29T03:43:09.568Z,80.54
2023-03-29T03:44:09.553Z,80.54
2023-03-29T03:45:09.543Z,80.54
2023-03-29T03:46:09.573Z,80.74
2023-03-29T03:47:09.513Z,81.16
2023-03-29T03:48:09.555Z,80.95
2023-03-29T03:49:09.490Z,81.37
2023-03-29T03:50:09.477Z,80.85
2023-03-29T03:51:09.464Z,80.64
2023-03-29T03:52:09.445Z,80.54
2023-03-29T03:53:09.672Z,79.39
2023-03-29T03:54:09.424Z,80.22
2023-03-29T03:55:09.439Z,80.22
2023-03-29T03:56:09.398Z,79.98
2023-03-29T03:57:09.463Z,80.02
2023-03-29T03:58:09.373Z,80.22
2023-03-29T03:59:09.383Z,79.39
2023-03-29T04:00:09.343Z,80.22
2023-03-29T04:01:09.336Z,80.74
2023-03-29T04:02:09.368Z,80.91
2023-03-29T04:03:09.445Z,80.95
2023-03-29T04:04:09.330Z,80.74
2023-03-29T04:05:09.281Z,79.60
2023-03-29T04:06:09.269Z,80.22
2023-03-29T04:07:09.256Z,80.74
2023-03-29T04:08:09.319Z,80.40
2023-03-29T04:09:09.247Z,80.08
2023-03-29T04:10:09.235Z,79.56
2023-03-29T04:11:09.205Z,79.35
2023-03-29T04:12:09.190Z,79.46
2023-03-29T04:13:09.200Z,79.56
2023-03-29T04:14:09.169Z,79.46
2023-03-29T04:15:09.152Z,79.46
2023-03-29T04:16:09.201Z,79.11
2023-03-29T04:17:09.125Z,79.04
2023-03-29T04:18:09.205Z,78.80
2023-03-29T04:19:09.101Z,78.59
2023-03-29T04:20:09.096Z,79.00
2023-03-29T04:21:09.086Z,78.49
2023-03-29T04:22:09.070Z,78.59
2023-03-29T04:23:09.061Z,78.59
2023-03-29T04:24:09.036Z,78.90
2023-03-29T04:25:09.029Z,78.90
2023-03-29T04:26:09.014Z,79.21
2023-03-29T04:27:09.001Z,78.90
2023-03-29T04:28:08.984Z,79.04
2023-03-29T04:29:08.972Z,78.59
2023-03-29T04:30:09.018Z,78.73
2023-03-29T04:31:08.966Z,79.11
2023-03-29T04:32:08.938Z,78.49
2023-03-29T04:33:08.974Z,78.90
2023-03-29T04:34:08.910Z,78.69
2023-03-29T04:35:08.900Z,78.90
2023-03-29T04:36:08.922Z,79.42
2023-03-29T04:37:08.875Z,78.69
2023-03-29T04:38:08.862Z,78.59
2023-03-29T04:39:08.859Z,78.38
2023-03-29T04:40:08.838Z,78.07
2023-03-29T04:41:08.830Z,78.31
2023-03-29T04:42:08.847Z,78.38
2023-03-29T04:43:08.801Z,78.80
2023-03-29T04:44:08.788Z,78.38
2023-03-29T04:45:08.822Z,78.49
2023-03-29T04:46:08.781Z,78.52
2023-03-29T04:47:08.746Z,79.11
2023-03-29T04:48:08.774Z,78.90
2023-03-29T04:49:08.727Z,78.38
2023-03-29T04:50:08.704Z,78.38
2023-03-29T04:51:08.699Z,78.38
2023-03-29T04:52:08.684Z,78.59
2023-03-29T04:53:08.671Z,78.17
2023-03-29T04:54:08.659Z,78.38
2023-03-29T04:55:08.683Z,78.17
2023-03-29T04:56:08.636Z,78.38
2023-03-29T04:57:08.712Z,78.28
2023-03-29T04:58:08.624Z,78.38
2023-03-29T04:59:08.597Z,78.17
2023-03-29T05:00:08.592Z,78.07
2023-03-29T05:01:08.585Z,78.17
2023-03-29T05:02:08.589Z,78.38
2023-03-29T05:03:08.630Z,78.59
2023-03-29T05:04:10.212Z,78.80
2023-03-29T05:05:08.521Z,78.49
2023-03-29T05:06:08.507Z,78.90
2023-03-29T05:07:08.514Z,78.55
2023-03-29T05:08:08.486Z,77.75
2023-03-29T05:09:08.467Z,78.86
2023-03-29T05:10:08.453Z,78.45
2023-03-29T05:11:08.442Z,78.14
2023-03-29T05:12:08.450Z,78.45
2023-03-29T05:13:08.419Z,77.09
2023-03-29T05:14:08.408Z,76.78
2023-03-29T05:15:08.398Z,77.93
2023-03-29T05:16:08.396Z,76.33
2023-03-29T05:17:08.365Z,77.16
2023-03-29T05:18:08.459Z,77.58
2023-03-29T05:19:08.340Z,76.54
2023-03-29T05:20:08.331Z,76.75
2023-03-29T05:21:08.313Z,76.95
2023-03-29T05:22:08.333Z,76.12
2023-03-29T05:23:08.288Z,77.79
2023-03-29T05:24:08.280Z,76.51
2023-03-29T05:25:08.287Z,76.12
2023-03-29T05:26:08.276Z,76.29
2023-03-29T05:27:08.255Z,76.29
2023-03-29T05:28:08.254Z,76.12
2023-03-29T05:29:08.214Z,75.71
2023-03-29T05:30:08.232Z,75.78
2023-03-29T05:31:08.292Z,75.67
2023-03-29T05:32:08.269Z,75.46
2023-03-29T05:33:08.220Z,75.46
2023-03-29T05:34:08.155Z,75.67
2023-03-29T05:35:08.138Z,75.64
2023-03-29T05:36:08.220Z,75.74
2023-03-29T05:37:08.115Z,75.74
2023-03-29T05:38:08.102Z,75.22
2023-03-29T05:39:08.087Z,75.43
2023-03-29T05:40:08.122Z,75.22
2023-03-29T05:41:08.062Z,75.01
2023-03-29T05:42:08.049Z,74.80
2023-03-29T05:43:08.044Z,75.29
2023-03-29T05:44:08.026Z,74.77
2023-03-29T05:45:08.006Z,74.67
2023-03-29T05:46:08.010Z,73.53
2023-03-29T05:47:07.988Z,73.74
2023-03-29T05:48:08.022Z,74.05
2023-03-29T05:49:07.966Z,74.11
2023-03-29T05:50:07.950Z,72.97
2023-03-29T05:51:07.940Z,72.87
2023-03-29T05:52:07.925Z,73.05
2023-03-29T05:53:07.912Z,72.63
2023-03-29T05:54:07.895Z,72.74
2023-03-29T05:55:07.899Z,71.87
2023-03-29T05:56:07.922Z,72.08
2023-03-29T05:57:07.963Z,72.08
2023-03-29T05:58:07.904Z,71.84
2023-03-29T05:59:07.845Z,71.84
2023-03-29T06:00:07.869Z,71.49
2023-03-29T06:01:07.821Z,71.39
2023-03-29T06:02:07.872Z,69.94
2023-03-29T06:03:17.985Z,69.94
2023-03-29T06:04:07.858Z,69.63
2023-03-29T06:05:07.949Z,69.94
2023-03-29T06:06:07.858Z,69.94
2023-03-29T06:07:07.746Z,70.46
2023-03-29T06:08:07.743Z,69.70
2023-03-29T06:09:07.742Z,68.38
2023-03-29T06:10:07.740Z,69.32
2023-03-29T06:11:07.992Z,68.59
2023-03-29T06:12:07.688Z,68.80
2023-03-29T06:13:07.680Z,69.21
2023-03-29T06:14:07.695Z,68.59
2023-03-29T06:15:07.650Z,68.70
2023-03-29T06:16:07.657Z,68.38
2023-03-29T06:17:07.660Z,69.32
2023-03-29T06:18:07.690Z,69.11
2023-03-29T06:19:07.608Z,69.29
2023-03-29T06:20:07.596Z,69.39
2023-03-29T06:21:07.637Z,68.25
2023-03-29T06:22:07.573Z,67.73
2023-03-29T06:23:07.573Z,68.35
2023-03-29T06:24:07.549Z,68.87
2023-03-29T06:25:07.533Z,68.43
2023-03-29T06:26:07.523Z,68.08
2023-03-29T06:27:07.517Z,67.80
2023-03-29T06:28:07.530Z,67.60
2023-03-29T06:29:07.570Z,67.49
2023-03-29T06:30:07.495Z,67.91
2023-03-29T06:31:07.559Z,67.29
2023-03-29T06:32:07.462Z,68.22
2023-03-29T06:33:07.503Z,67.67
2023-03-29T06:34:07.553Z,67.15
2023-03-29T06:35:07.420Z,67.15
2023-03-29T06:36:07.534Z,67.05
2023-03-29T06:37:07.416Z,66.53
2023-03-29T06:38:07.446Z,66.56
2023-03-29T06:39:07.411Z,66.63
2023-03-29T06:40:07.378Z,66.05
2023-03-29T06:41:07.382Z,66.84
2023-03-29T06:42:16.883Z,67.25
2023-03-29T06:43:07.376Z,67.05
2023-03-29T06:44:07.322Z,65.91
2023-03-29T06:45:07.309Z,66.60
2023-03-29T06:46:07.320Z,67.12
2023-03-29T06:47:07.285Z,66.39
2023-03-29T06:48:07.316Z,65.95
2023-03-29T06:49:07.286Z,65.85
2023-03-29T06:50:07.257Z,66.16
2023-03-29T06:51:07.242Z,65.54
2023-03-29T06:52:09.807Z,65.26
2023-03-29T06:53:08.098Z,65.78
2023-03-29T06:54:07.213Z,65.85
2023-03-29T06:55:07.206Z,66.16
2023-03-29T06:56:07.186Z,65.64
2023-03-29T06:57:07.216Z,65.23
2023-03-29T06:58:07.169Z,65.85
2023-03-29T06:59:07.156Z,64.61
2023-03-29T07:00:07.149Z,65.75
2023-03-29T07:01:07.223Z,65.33
2023-03-29T07:02:07.190Z,65.44
2023-03-29T07:03:07.374Z,65.51
2023-03-29T07:04:07.146Z,64.27
2023-03-29T07:05:07.096Z,64.30
2023-03-29T07:06:07.082Z,65.30
2023-03-29T07:07:07.066Z,64.06
2023-03-29T07:08:07.056Z,63.65
2023-03-29T07:09:07.133Z,63.72
2023-03-29T07:10:07.045Z,63.85
2023-03-29T07:11:07.034Z,62.82
2023-03-29T07:12:07.009Z,62.62
2023-03-29T07:13:07.017Z,63.57
2023-03-29T07:14:06.991Z,63.89
2023-03-29T07:15:06.978Z,63.68
2023-03-29T07:16:06.985Z,64.40
2023-03-29T07:17:06.958Z,63.96
2023-03-29T07:18:06.976Z,64.06
2023-03-29T07:19:06.931Z,64.99
2023-03-29T07:20:06.935Z,64.27
2023-03-29T07:21:06.916Z,63.82
2023-03-29T07:22:06.912Z,62.72
2023-03-29T07:23:06.887Z,63.75
2023-03-29T07:24:06.902Z,63.85
2023-03-29T07:25:06.868Z,62.82
2023-03-29T07:26:06.863Z,63.44
2023-03-29T07:27:06.856Z,63.72
2023-03-29T07:28:06.845Z,63.62
2023-03-29T07:29:06.856Z,63.72
2023-03-29T07:30:06.819Z,63.49
2023-03-29T07:31:06.847Z,63.90
2023-03-29T07:32:06.811Z,62.87
2023-03-29T07:33:06.986Z,63.07
2023-03-29T07:34:06.794Z,61.83
2023-03-29T07:35:06.768Z,62.66
2023-03-29T07:36:06.778Z,62.35
2023-03-29T07:37:06.751Z,62.35
2023-03-29T07:38:06.741Z,63.04
2023-03-29T07:39:06.731Z,61.91
2023-03-29T07:40:06.770Z,61.91
2023-03-29T07:41:06.831Z,63.01
2023-03-29T07:42:06.712Z,61.78
2023-03-29T07:43:06.678Z,62.24
2023-03-29T07:44:06.674Z,61.82
2023-03-29T07:45:06.656Z,61.21
2023-03-29T07:46:06.770Z,60.49
2023-03-29T07:47:06.641Z,61.18
2023-03-29T07:48:06.705Z,60.97
2023-03-29T07:49:06.615Z,60.66
2023-03-29T07:50:06.616Z,60.33
2023-03-29T07:51:06.597Z,58.75
2023-03-29T07:52:06.587Z,58.58
2023-03-29T07:53:06.576Z,58.89
2023-03-29T07:54:06.577Z,60.40
2023-03-29T07:55:06.570Z,59.78
2023-03-29T07:56:06.547Z,58.45
2023-03-29T07:57:06.538Z,59.37
2023-03-29T07:58:06.532Z,58.86
2023-03-29T07:59:06.516Z,58.45
2023-03-29T08:00:06.588Z,58.34
2023-03-29T08:01:06.751Z,57.14
2023-03-29T08:02:06.490Z,58.37
2023-03-29T08:03:06.543Z,58.58
2023-03-29T08:04:06.585Z,57.86
2023-03-29T08:05:06.522Z,58.68
2023-03-29T08:06:06.454Z,58.96
2023-03-29T08:07:06.440Z,59.50
2023-03-29T08:08:06.515Z,58.98
2023-03-29T08:09:06.424Z,59.27
2023-03-29T08:10:06.428Z,59.17
2023-03-29T08:11:06.452Z,58.45
2023-03-29T08:12:06.392Z,58.65
2023-03-29T08:13:06.381Z,59.47
2023-03-29T08:14:06.372Z,59.45
2023-03-29T08:15:06.364Z,59.37
2023-03-29T08:16:06.357Z,58.75
2023-03-29T08:17:06.396Z,58.45
2023-03-29T08:18:06.408Z,59.37
2023-03-29T08:19:06.327Z,58.96
2023-03-29T08:20:06.319Z,59.61
2023-03-29T08:21:06.486Z,59.89
2023-03-29T08:22:06.298Z,59.68
2023-03-29T08:23:06.296Z,59.47
2023-03-29T08:24:06.288Z,59.61
2023-03-29T08:25:06.298Z,60.02
2023-03-29T08:26:06.263Z,60.12
2023-03-29T08:27:06.250Z,59.91
2023-03-29T08:28:06.244Z,60.05
2023-03-29T08:29:06.235Z,60.87
2023-03-29T08:30:06.231Z,61.07
2023-03-29T08:31:06.271Z,61.72
2023-03-29T08:32:06.202Z,62.24
2023-03-29T08:33:06.231Z,62.75
2023-03-29T08:34:06.187Z,62.65
2023-03-29T08:35:06.217Z,63.17
2023-03-29T08:36:06.213Z,63.57
2023-03-29T08:37:06.165Z,63.65
2023-03-29T08:38:06.162Z,63.17
2023-03-29T08:39:06.146Z,63.24
2023-03-29T08:40:06.156Z,63.45
2023-03-29T08:41:06.118Z,63.54
2023-03-29T08:42:06.119Z,62.62
2023-03-29T08:43:06.113Z,62.79
2023-03-29T08:44:06.086Z,63.24
2023-03-29T08:45:06.114Z,63.31
2023-03-29T08:46:06.092Z,61.69
2023-03-29T08:47:06.635Z,62.31
2023-03-29T08:48:06.093Z,63.65
2023-03-29T08:49:06.042Z,63.85
2023-03-29T08:50:06.029Z,63.45
2023-03-29T08:51:07.973Z,63.96
2023-03-29T08:52:06.008Z,62.52
2023-03-29T08:53:06.010Z,62.70
2023-03-29T08:54:05.990Z,63.72
2023-03-29T08:55:05.976Z,62.87
2023-03-29T08:56:05.975Z,62.77
2023-03-29T08:57:05.986Z,62.63
2023-03-29T08:58:05.951Z,62.33
2023-03-29T08:59:05.938Z,62.74
2023-03-29T09:00:05.943Z,62.33
2023-03-29T09:01:06.005Z,62.09
2023-03-29T09:02:05.948Z,61.76
2023-03-29T09:03:05.983Z,61.76
2023-03-29T09:04:05.951Z,62.16
2023-03-29T09:05:05.883Z,61.44
2023-03-29T09:06:05.879Z,60.80
2023-03-29T09:07:05.854Z,61.80
2023-03-29T09:08:05.848Z,62.01
2023-03-29T09:09:05.863Z,60.33
2023-03-29T09:10:05.832Z,59.80
2023-03-29T09:11:05.820Z,59.80
2023-03-29T09:12:05.813Z,58.67
2023-03-29T09:13:05.814Z,57.84
2023-03-29T09:14:05.789Z,58.56
2023-03-29T09:15:05.794Z,57.26
2023-03-29T09:16:05.821Z,58.90
2023-03-29T09:17:05.762Z,59.72
2023-03-29T09:18:05.806Z,59.82
2023-03-29T09:19:05.743Z,59.72
2023-03-29T09:20:05.738Z,59.72
2023-03-29T09:21:05.727Z,60.72
2023-03-29T09:22:05.719Z,59.59
2023-03-29T09:23:05.707Z,58.87
2023-03-29T09:24:05.700Z,58.77
2023-03-29T09:25:05.687Z,59.38
2023-03-29T09:26:05.677Z,58.87
2023-03-29T09:27:05.707Z,59.18
2023-03-29T09:28:05.665Z,58.77
2023-03-29T09:29:07.735Z,59.48
2023-03-29T09:30:05.649Z,59.80
2023-03-29T09:31:05.664Z,59.56
2023-03-29T09:32:05.641Z,60.07
2023-03-29T09:33:05.676Z,59.77
2023-03-29T09:34:05.609Z,59.66
2023-03-29T09:35:05.597Z,60.07
2023-03-29T09:36:05.603Z,59.66
2023-03-29T09:37:05.591Z,59.12
2023-03-29T09:38:05.582Z,59.56
2023-03-29T09:39:05.564Z,59.87
2023-03-29T09:40:05.609Z,59.94
2023-03-29T09:41:05.902Z,59.74
2023-03-29T09:42:05.537Z,59.64
2023-03-29T09:43:05.536Z,59.53
2023-03-29T09:44:05.526Z,59.53
2023-03-29T09:45:05.512Z,58.72
2023-03-29T09:46:05.531Z,59.64
2023-03-29T09:47:05.495Z,59.64
2023-03-29T09:48:05.504Z,59.33
2023-03-29T09:49:05.478Z,59.74
2023-03-29T09:50:05.470Z,59.43
2023-03-29T09:51:05.474Z,59.64
2023-03-29T09:52:05.452Z,60.22
2023-03-29T09:53:05.453Z,60.02
2023-03-29T09:54:05.446Z,59.61
2023-03-29T09:55:05.428Z,59.92
2023-03-29T09:56:05.421Z,59.71
2023-03-29T09:57:05.436Z,59.41
2023-03-29T09:58:05.408Z,59.20
2023-03-29T09:59:05.527Z,59.09
2023-03-29T10:00:05.390Z,59.81
2023-03-29T10:01:05.755Z,59.58
2023-03-29T10:02:05.367Z,59.17
2023-03-29T10:03:05.414Z,59.78
2023-03-29T10:04:05.388Z,59.30
2023-03-29T10:05:05.347Z,58.76
2023-03-29T10:06:05.334Z,58.97
2023-03-29T10:07:05.325Z,58.58
2023-03-29T10:08:05.320Z,59.09
2023-03-29T10:09:05.324Z,59.00
2023-03-29T10:10:05.304Z,59.27
2023-03-29T10:11:05.408Z,58.86
2023-03-29T10:12:05.283Z,59.48
2023-03-29T10:13:05.279Z,58.86
2023-03-29T10:14:05.265Z,59.17
2023-03-29T10:15:05.260Z,59.07
2023-03-29T10:16:05.264Z,59.96
2023-03-29T10:17:05.246Z,59.55
2023-03-29T10:18:05.244Z,58.86
2023-03-29T10:19:05.221Z,58.84
2023-03-29T10:20:05.644Z,58.66
2023-03-29T10:21:05.522Z,56.61
2023-03-29T10:22:05.217Z,58.66
2023-03-29T10:23:05.194Z,58.66
2023-03-29T10:24:05.181Z,57.94
2023-03-29T10:25:05.183Z,58.76
2023-03-29T10:26:05.171Z,58.66
2023-03-29T10:27:05.156Z,58.69
2023-03-29T10:28:05.168Z,58.86
2023-03-29T10:29:05.155Z,58.56
2023-03-29T10:30:05.140Z,58.94
2023-03-29T10:31:05.397Z,58.94
2023-03-29T10:32:05.225Z,57.28
2023-03-29T10:33:05.350Z,57.99
2023-03-29T10:34:05.184Z,58.09
2023-03-29T10:35:05.097Z,58.70
2023-03-29T10:36:05.127Z,58.61
2023-03-29T10:37:05.089Z,57.66
2023-03-29T10:38:05.094Z,57.04
2023-03-29T10:39:06.226Z,57.73
2023-03-29T10:40:05.081Z,57.32
2023-03-29T10:41:05.144Z,58.48
2023-03-29T10:42:05.062Z,58.42
2023-03-29T10:43:05.085Z,58.34
2023-03-29T10:44:05.040Z,58.11
2023-03-29T10:45:05.040Z,57.29
2023-03-29T10:46:05.077Z,56.79
2023-03-29T10:47:05.026Z,56.89
2023-03-29T10:48:05.028Z,56.99
2023-03-29T10:49:04.983Z,57.09
2023-03-29T10:50:04.980Z,56.40
2023-03-29T10:51:05.175Z,58.86
2023-03-29T10:52:04.962Z,57.40
2023-03-29T10:53:04.952Z,57.70
2023-03-29T10:54:04.939Z,57.70
2023-03-29T10:55:04.938Z,57.20
2023-03-29T10:56:04.928Z,56.99
2023-03-29T10:57:04.945Z,57.60
2023-03-29T10:58:04.912Z,58.52
2023-03-29T10:59:04.922Z,57.60
2023-03-29T11:00:04.898Z,57.40
2023-03-29T11:01:05.114Z,57.29
2023-03-29T11:02:04.921Z,56.99
2023-03-29T11:03:04.977Z,56.38
2023-03-29T11:04:04.925Z,56.48
2023-03-29T11:05:04.864Z,56.40
2023-03-29T11:06:04.868Z,56.71
2023-03-29T11:07:04.838Z,56.92
2023-03-29T11:08:04.832Z,57.02
2023-03-29T11:09:04.824Z,58.14
2023-03-29T11:10:04.824Z,57.50
2023-03-29T11:11:04.941Z,58.11
2023-03-29T11:12:15.583Z,56.99
2023-03-29T11:13:04.801Z,56.58
2023-03-29T11:14:04.832Z,56.66
2023-03-29T11:15:04.815Z,57.17
2023-03-29T11:16:04.821Z,56.25
2023-03-29T11:17:04.769Z,56.35
2023-03-29T11:18:04.760Z,55.91
2023-03-29T11:19:04.773Z,55.82
2023-03-29T11:20:05.376Z,55.51
2023-03-29T11:21:08.560Z,55.82
2023-03-29T11:22:04.754Z,55.20
2023-03-29T11:23:04.725Z,54.54
2023-03-29T11:24:04.716Z,56.48
2023-03-29T11:25:04.713Z,56.38
2023-03-29T11:26:04.704Z,56.48
2023-03-29T11:27:04.760Z,57.50
2023-03-29T11:28:04.683Z,56.99
2023-03-29T11:29:04.709Z,56.15
2023-03-29T11:30:04.681Z,55.87
2023-03-29T11:31:04.873Z,56.38
2023-03-29T11:32:04.658Z,56.35
2023-03-29T11:33:04.770Z,56.45
2023-03-29T11:34:04.639Z,55.91
2023-03-29T11:35:04.628Z,56.43
2023-03-29T11:36:04.724Z,55.99
2023-03-29T11:37:04.623Z,54.67
2023-03-29T11:38:04.678Z,54.87
2023-03-29T11:39:04.631Z,53.85
2023-03-29T11:40:04.605Z,54.67
2023-03-29T11:41:04.863Z,53.77
2023-03-29T11:42:04.577Z,54.39
2023-03-29T11:43:04.585Z,55.91
2023-03-29T11:44:04.569Z,55.89
2023-03-29T11:45:04.576Z,55.38
2023-03-29T11:46:04.578Z,54.77
2023-03-29T11:47:04.564Z,55.38
2023-03-29T11:48:04.584Z,53.85
2023-03-29T11:49:04.537Z,54.57
2023-03-29T11:50:04.544Z,55.69
2023-03-29T11:51:04.630Z,54.36
2023-03-29T11:52:04.512Z,54.57
2023-03-29T11:53:04.512Z,54.87
2023-03-29T11:54:04.503Z,54.36
2023-03-29T11:55:04.493Z,54.36
2023-03-29T11:56:04.493Z,55.10
2023-03-29T11:57:04.522Z,54.97
2023-03-29T11:58:04.485Z,55.58
2023-03-29T11:59:04.465Z,54.77
2023-03-29T12:00:04.462Z,55.79
2023-03-29T12:01:04.546Z,53.92
2023-03-29T12:02:04.504Z,55.35
2023-03-29T12:03:04.496Z,55.43
2023-03-29T12:04:04.525Z,55.43
2023-03-29T12:05:04.427Z,54.18
2023-03-29T12:06:04.470Z,53.88
2023-03-29T12:07:04.411Z,53.55
2023-03-29T12:08:04.406Z,53.67
2023-03-29T12:09:04.398Z,53.47
2023-03-29T12:10:04.395Z,52.22
2023-03-29T12:11:04.574Z,52.55
2023-03-29T12:12:04.415Z,52.88
2023-03-29T12:13:04.373Z,53.90
2023-03-29T12:14:04.371Z,54.21
2023-03-29T12:15:04.357Z,53.59
2023-03-29T12:16:04.358Z,53.57
2023-03-29T12:17:04.350Z,52.86
2023-03-29T12:18:04.390Z,52.15
2023-03-29T12:19:04.327Z,53.44
2023-03-29T12:20:04.500Z,52.12
2023-03-29T12:21:04.338Z,52.76
2023-03-29T12:22:04.311Z,52.15
2023-03-29T12:23:04.307Z,51.94
2023-03-29T12:24:04.298Z,52.76
2023-03-29T12:25:04.296Z,52.68
2023-03-29T12:26:04.301Z,52.17
2023-03-29T12:27:04.279Z,51.99
2023-03-29T12:28:04.272Z,52.50
2023-03-29T12:29:04.281Z,53.22
2023-03-29T12:30:04.260Z,52.40
2023-03-29T12:31:04.453Z,53.11
2023-03-29T12:32:04.338Z,53.03
2023-03-29T12:33:04.343Z,53.44
2023-03-29T12:34:04.241Z,53.75
2023-03-29T12:35:04.234Z,53.11
2023-03-29T12:36:04.254Z,53.64
2023-03-29T12:37:04.217Z,53.44
2023-03-29T12:38:04.241Z,54.03
2023-03-29T12:39:04.216Z,52.93
2023-03-29T12:40:04.224Z,53.55
2023-03-29T12:41:04.368Z,54.16
2023-03-29T12:42:04.185Z,53.98
2023-03-29T12:43:04.182Z,55.00
2023-03-29T12:44:04.174Z,54.51
2023-03-29T12:45:04.170Z,55.33
2023-03-29T12:46:04.775Z,56.45
2023-03-29T12:47:04.155Z,55.02
2023-03-29T12:48:04.169Z,55.43
2023-03-29T12:49:04.143Z,54.51
2023-03-29T12:50:04.135Z,56.04
2023-03-29T12:51:04.125Z,54.79
2023-03-29T12:52:04.124Z,55.41